sensor_id;sensor_type;location;lat;lon;timestamp;P1;durP1;ratioP1;P2;durP2;ratioP2
826;SDS011;395;48.132;11.608;2023-03-01T00:01:24;19.30;;;14.17;;
826;SDS011;395;48.132;11.608;2023-03-01T00:03:51;22.92;;;16.10;;
826;SDS011;395;48.132;11.608;2023-03-01T00:06:18;18.45;;;14.57;;
826;SDS011;395;48.132;11.608;2023-03-01T00:08:44;21.95;;;14.30;;
826;SDS011;395;48.132;11.608;2023-03-01T00:11:17;19.70;;;14.63;;
826;SDS011;395;48.132;11.608;2023-03-01T00:13:46;22.45;;;15.40;;
826;SDS011;395;48.132;11.608;2023-03-01T00:16:15;20.58;;;14.80;;
826;SDS011;395;48.132;11.608;2023-03-01T00:18:46;18.38;;;12.93;;
826;SDS011;395;48.132;11.608;2023-03-01T00:21:11;17.67;;;14.00;;
826;SDS011;395;48.132;11.608;2023-03-01T00:23:38;17.77;;;13.63;;
826;SDS011;395;48.132;11.608;2023-03-01T00:26:08;19.63;;;15.27;;
826;SDS011;395;48.132;11.608;2023-03-01T00:28:35;21.58;;;15.10;;
826;SDS011;395;48.132;11.608;2023-03-01T00:31:04;21.40;;;15.00;;
826;SDS011;395;48.132;11.608;2023-03-01T00:33:32;18.92;;;14.50;;
826;SDS011;395;48.132;11.608;2023-03-01T00:35:58;20.40;;;14.97;;
826;SDS011;395;48.132;11.608;2023-03-01T00:38:24;20.02;;;13.95;;
826;SDS011;395;48.132;11.608;2023-03-01T00:40:50;18.42;;;13.82;;
826;SDS011;395;48.132;11.608;2023-03-01T00:43:16;20.70;;;15.13;;
826;SDS011;395;48.132;11.608;2023-03-01T00:45:42;20.50;;;15.47;;
826;SDS011;395;48.132;11.608;2023-03-01T00:48:07;22.50;;;15.20;;
826;SDS011;395;48.132;11.608;2023-03-01T00:50:33;23.23;;;15.67;;
826;SDS011;395;48.132;11.608;2023-03-01T00:52:59;21.40;;;13.83;;
826;SDS011;395;48.132;11.608;2023-03-01T00:55:25;18.30;;;14.37;;
826;SDS011;395;48.132;11.608;2023-03-01T00:57:51;22.92;;;16.05;;
826;SDS011;395;48.132;11.608;2023-03-01T01:00:17;18.23;;;14.30;;
826;SDS011;395;48.132;11.608;2023-03-01T01:02:43;20.88;;;14.30;;
826;SDS011;395;48.132;11.608;2023-03-01T01:05:09;20.40;;;14.77;;
826;SDS011;395;48.132;11.608;2023-03-01T01:07:35;20.57;;;13.87;;
826;SDS011;395;48.132;11.608;2023-03-01T01:10:00;19.70;;;15.13;;
826;SDS011;395;48.132;11.608;2023-03-01T01:12:26;19.40;;;14.37;;
826;SDS011;395;48.132;11.608;2023-03-01T01:14:51;17.03;;;13.70;;
826;SDS011;395;48.132;11.608;2023-03-01T01:17:17;20.83;;;14.43;;
826;SDS011;395;48.132;11.608;2023-03-01T01:19:43;20.30;;;14.67;;
826;SDS011;395;48.132;11.608;2023-03-01T01:22:08;21.20;;;15.53;;
826;SDS011;395;48.132;11.608;2023-03-01T01:24:34;19.73;;;13.97;;
826;SDS011;395;48.132;11.608;2023-03-01T01:27:00;20.13;;;14.00;;
826;SDS011;395;48.132;11.608;2023-03-01T01:29:26;22.50;;;15.17;;
826;SDS011;395;48.132;11.608;2023-03-01T01:31:51;19.10;;;13.67;;
826;SDS011;395;48.132;11.608;2023-03-01T01:34:18;20.43;;;15.63;;
826;SDS011;395;48.132;11.608;2023-03-01T01:36:49;20.80;;;15.63;;
826;SDS011;395;48.132;11.608;2023-03-01T01:39:21;20.67;;;14.85;;
826;SDS011;395;48.132;11.608;2023-03-01T01:41:47;22.67;;;15.25;;
826;SDS011;395;48.132;11.608;2023-03-01T01:44:14;22.13;;;16.53;;
826;SDS011;395;48.132;11.608;2023-03-01T01:46:41;18.85;;;15.00;;
826;SDS011;395;48.132;11.608;2023-03-01T01:57:14;21.63;;;15.05;;
826;SDS011;395;48.132;11.608;2023-03-01T01:59:45;20.33;;;14.80;;
826;SDS011;395;48.132;11.608;2023-03-01T02:02:15;22.85;;;16.50;;
826;SDS011;395;48.132;11.608;2023-03-01T02:04:41;22.08;;;16.50;;
826;SDS011;395;48.132;11.608;2023-03-01T02:07:11;21.17;;;14.60;;
826;SDS011;395;48.132;11.608;2023-03-01T02:09:45;20.65;;;16.20;;
826;SDS011;395;48.132;11.608;2023-03-01T02:12:14;18.45;;;14.40;;
826;SDS011;395;48.132;11.608;2023-03-01T02:14:42;21.50;;;15.52;;
826;SDS011;395;48.132;11.608;2023-03-01T02:17:08;19.80;;;15.37;;
826;SDS011;395;48.132;11.608;2023-03-01T02:28:02;18.08;;;14.05;;
826;SDS011;395;48.132;11.608;2023-03-01T02:30:38;19.73;;;14.10;;
826;SDS011;395;48.132;11.608;2023-03-01T02:33:25;23.65;;;15.85;;
826;SDS011;395;48.132;11.608;2023-03-01T02:35:51;19.23;;;15.48;;
826;SDS011;395;48.132;11.608;2023-03-01T02:38:20;22.70;;;15.30;;
826;SDS011;395;48.132;11.608;2023-03-01T02:40:47;21.15;;;15.25;;
826;SDS011;395;48.132;11.608;2023-03-01T02:43:16;22.35;;;15.32;;
826;SDS011;395;48.132;11.608;2023-03-01T02:45:47;19.13;;;14.80;;
826;SDS011;395;48.132;11.608;2023-03-01T02:48:18;20.17;;;14.18;;
826;SDS011;395;48.132;11.608;2023-03-01T02:53:33;23.27;;;15.40;;
826;SDS011;395;48.132;11.608;2023-03-01T02:56:07;21.85;;;15.60;;
826;SDS011;395;48.132;11.608;2023-03-01T02:58:38;19.40;;;14.27;;
826;SDS011;395;48.132;11.608;2023-03-01T03:01:10;21.83;;;15.20;;
826;SDS011;395;48.132;11.608;2023-03-01T03:03:38;19.20;;;13.95;;
826;SDS011;395;48.132;11.608;2023-03-01T03:06:04;20.80;;;16.10;;
826;SDS011;395;48.132;11.608;2023-03-01T03:08:29;20.57;;;15.30;;
826;SDS011;395;48.132;11.608;2023-03-01T03:10:55;20.03;;;14.07;;
826;SDS011;395;48.132;11.608;2023-03-01T03:13:21;19.27;;;14.90;;
826;SDS011;395;48.132;11.608;2023-03-01T03:15:47;21.88;;;15.93;;
826;SDS011;395;48.132;11.608;2023-03-01T03:18:14;19.40;;;14.73;;
826;SDS011;395;48.132;11.608;2023-03-01T03:20:41;20.90;;;15.63;;
826;SDS011;395;48.132;11.608;2023-03-01T03:23:07;19.83;;;15.18;;
826;SDS011;395;48.132;11.608;2023-03-01T03:25:33;22.08;;;16.08;;
826;SDS011;395;48.132;11.608;2023-03-01T03:28:03;20.80;;;15.00;;
826;SDS011;395;48.132;11.608;2023-03-01T03:30:34;22.40;;;14.75;;
826;SDS011;395;48.132;11.608;2023-03-01T03:33:01;19.20;;;14.60;;
826;SDS011;395;48.132;11.608;2023-03-01T03:35:29;21.58;;;14.55;;
826;SDS011;395;48.132;11.608;2023-03-01T03:38:07;21.13;;;14.80;;
826;SDS011;395;48.132;11.608;2023-03-01T03:40:40;23.48;;;15.88;;
826;SDS011;395;48.132;11.608;2023-03-01T03:43:12;21.48;;;15.48;;
826;SDS011;395;48.132;11.608;2023-03-01T03:45:40;20.55;;;15.35;;
826;SDS011;395;48.132;11.608;2023-03-01T03:48:08;20.30;;;15.48;;
826;SDS011;395;48.132;11.608;2023-03-01T03:50:35;20.48;;;15.35;;
826;SDS011;395;48.132;11.608;2023-03-01T03:53:02;21.27;;;14.65;;
826;SDS011;395;48.132;11.608;2023-03-01T03:55:31;19.25;;;14.30;;
826;SDS011;395;48.132;11.608;2023-03-01T03:57:59;19.95;;;14.75;;
826;SDS011;395;48.132;11.608;2023-03-01T04:00:31;21.98;;;15.55;;
826;SDS011;395;48.132;11.608;2023-03-01T04:03:08;18.95;;;14.57;;
826;SDS011;395;48.132;11.608;2023-03-01T04:05:35;21.00;;;14.57;;
826;SDS011;395;48.132;11.608;2023-03-01T04:08:02;19.77;;;14.82;;
826;SDS011;395;48.132;11.608;2023-03-01T04:10:36;21.83;;;15.30;;
826;SDS011;395;48.132;11.608;2023-03-01T04:13:03;25.23;;;16.42;;
826;SDS011;395;48.132;11.608;2023-03-01T04:15:30;20.65;;;15.15;;
826;SDS011;395;48.132;11.608;2023-03-01T04:17:57;21.45;;;16.33;;
826;SDS011;395;48.132;11.608;2023-03-01T04:20:25;23.63;;;16.98;;
826;SDS011;395;48.132;11.608;2023-03-01T04:22:55;21.13;;;15.93;;
826;SDS011;395;48.132;11.608;2023-03-01T04:28:19;22.67;;;15.77;;
826;SDS011;395;48.132;11.608;2023-03-01T04:30:50;20.33;;;14.95;;
826;SDS011;395;48.132;11.608;2023-03-01T04:33:16;23.40;;;16.30;;
826;SDS011;395;48.132;11.608;2023-03-01T04:35:43;19.60;;;15.20;;
826;SDS011;395;48.132;11.608;2023-03-01T04:38:09;17.93;;;14.73;;
826;SDS011;395;48.132;11.608;2023-03-01T04:40:35;23.43;;;16.53;;
826;SDS011;395;48.132;11.608;2023-03-01T04:43:01;19.60;;;15.85;;
826;SDS011;395;48.132;11.608;2023-03-01T04:45:27;21.70;;;14.15;;
826;SDS011;395;48.132;11.608;2023-03-01T04:47:53;26.17;;;15.67;;
826;SDS011;395;48.132;11.608;2023-03-01T04:50:19;22.60;;;15.90;;
826;SDS011;395;48.132;11.608;2023-03-01T04:52:47;19.50;;;14.45;;
826;SDS011;395;48.132;11.608;2023-03-01T04:55:13;20.70;;;15.45;;
826;SDS011;395;48.132;11.608;2023-03-01T04:57:39;21.45;;;15.98;;
826;SDS011;395;48.132;11.608;2023-03-01T05:00:06;22.77;;;16.60;;
826;SDS011;395;48.132;11.608;2023-03-01T05:02:56;21.45;;;16.35;;
826;SDS011;395;48.132;11.608;2023-03-01T05:07:58;24.70;;;16.23;;
826;SDS011;395;48.132;11.608;2023-03-01T05:10:26;22.13;;;16.48;;
826;SDS011;395;48.132;11.608;2023-03-01T05:12:58;24.42;;;16.15;;
826;SDS011;395;48.132;11.608;2023-03-01T05:15:25;22.33;;;15.82;;
826;SDS011;395;48.132;11.608;2023-03-01T05:17:52;22.85;;;16.38;;
826;SDS011;395;48.132;11.608;2023-03-01T05:20:19;21.38;;;15.63;;
826;SDS011;395;48.132;11.608;2023-03-01T05:22:48;26.23;;;16.05;;
826;SDS011;395;48.132;11.608;2023-03-01T05:25:14;19.40;;;15.05;;
826;SDS011;395;48.132;11.608;2023-03-01T05:27:40;24.63;;;15.70;;
826;SDS011;395;48.132;11.608;2023-03-01T05:30:06;21.27;;;14.70;;
826;SDS011;395;48.132;11.608;2023-03-01T05:32:42;25.35;;;16.08;;
826;SDS011;395;48.132;11.608;2023-03-01T05:35:12;20.10;;;14.95;;
826;SDS011;395;48.132;11.608;2023-03-01T05:37:40;22.55;;;15.75;;
826;SDS011;395;48.132;11.608;2023-03-01T05:40:14;25.27;;;15.32;;
826;SDS011;395;48.132;11.608;2023-03-01T05:42:43;21.67;;;15.00;;
826;SDS011;395;48.132;11.608;2023-03-01T05:45:10;20.40;;;16.05;;
826;SDS011;395;48.132;11.608;2023-03-01T05:47:37;21.52;;;15.90;;
826;SDS011;395;48.132;11.608;2023-03-01T05:50:11;23.90;;;15.70;;
826;SDS011;395;48.132;11.608;2023-03-01T05:52:50;25.80;;;16.23;;
826;SDS011;395;48.132;11.608;2023-03-01T05:55:20;23.50;;;16.35;;
826;SDS011;395;48.132;11.608;2023-03-01T05:57:46;26.38;;;16.45;;
826;SDS011;395;48.132;11.608;2023-03-01T06:00:13;23.55;;;16.90;;
826;SDS011;395;48.132;11.608;2023-03-01T06:02:39;22.48;;;15.38;;
826;SDS011;395;48.132;11.608;2023-03-01T06:05:06;22.17;;;16.40;;
826;SDS011;395;48.132;11.608;2023-03-01T06:07:33;20.23;;;15.05;;
826;SDS011;395;48.132;11.608;2023-03-01T06:10:00;23.85;;;14.93;;
826;SDS011;395;48.132;11.608;2023-03-01T06:12:27;26.27;;;16.13;;
826;SDS011;395;48.132;11.608;2023-03-01T06:14:55;23.67;;;15.95;;
826;SDS011;395;48.132;11.608;2023-03-01T06:17:21;21.87;;;16.20;;
826;SDS011;395;48.132;11.608;2023-03-01T06:19:47;25.40;;;16.37;;
826;SDS011;395;48.132;11.608;2023-03-01T06:22:12;20.17;;;14.37;;
826;SDS011;395;48.132;11.608;2023-03-01T06:24:38;34.63;;;18.23;;
826;SDS011;395;48.132;11.608;2023-03-01T06:27:04;33.33;;;17.10;;
826;SDS011;395;48.132;11.608;2023-03-01T06:29:29;30.43;;;15.93;;
826;SDS011;395;48.132;11.608;2023-03-01T06:31:55;24.80;;;15.67;;
826;SDS011;395;48.132;11.608;2023-03-01T06:34:21;25.67;;;15.60;;
826;SDS011;395;48.132;11.608;2023-03-01T06:36:47;24.13;;;16.77;;
826;SDS011;395;48.132;11.608;2023-03-01T06:39:12;26.73;;;15.60;;
826;SDS011;395;48.132;11.608;2023-03-01T06:41:38;25.30;;;17.60;;
826;SDS011;395;48.132;11.608;2023-03-01T06:44:04;30.50;;;16.20;;
826;SDS011;395;48.132;11.608;2023-03-01T06:46:29;30.67;;;17.50;;
826;SDS011;395;48.132;11.608;2023-03-01T06:48:55;23.13;;;16.23;;
826;SDS011;395;48.132;11.608;2023-03-01T06:51:21;24.43;;;16.00;;
826;SDS011;395;48.132;11.608;2023-03-01T06:53:47;29.43;;;16.07;;
826;SDS011;395;48.132;11.608;2023-03-01T06:56:12;26.77;;;16.43;;
826;SDS011;395;48.132;11.608;2023-03-01T06:58:38;25.73;;;15.40;;
826;SDS011;395;48.132;11.608;2023-03-01T07:01:07;28.23;;;15.97;;
826;SDS011;395;48.132;11.608;2023-03-01T07:03:33;23.40;;;15.70;;
826;SDS011;395;48.132;11.608;2023-03-01T07:05:59;19.73;;;15.10;;
826;SDS011;395;48.132;11.608;2023-03-01T07:08:26;23.97;;;16.30;;
826;SDS011;395;48.132;11.608;2023-03-01T07:10:55;25.52;;;16.58;;
826;SDS011;395;48.132;11.608;2023-03-01T07:13:22;26.25;;;16.58;;
826;SDS011;395;48.132;11.608;2023-03-01T07:15:47;20.97;;;14.67;;
826;SDS011;395;48.132;11.608;2023-03-01T07:18:13;22.37;;;15.87;;
826;SDS011;395;48.132;11.608;2023-03-01T07:20:39;27.40;;;17.73;;
826;SDS011;395;48.132;11.608;2023-03-01T07:23:04;26.57;;;16.70;;
826;SDS011;395;48.132;11.608;2023-03-01T07:25:31;29.73;;;17.23;;
826;SDS011;395;48.132;11.608;2023-03-01T07:27:57;22.95;;;15.30;;
826;SDS011;395;48.132;11.608;2023-03-01T07:30:23;26.17;;;17.20;;
826;SDS011;395;48.132;11.608;2023-03-01T07:32:50;25.48;;;17.17;;
826;SDS011;395;48.132;11.608;2023-03-01T07:35:17;25.00;;;16.53;;
826;SDS011;395;48.132;11.608;2023-03-01T07:37:43;24.42;;;16.30;;
826;SDS011;395;48.132;11.608;2023-03-01T07:40:09;28.57;;;17.37;;
826;SDS011;395;48.132;11.608;2023-03-01T07:42:35;40.25;;;19.65;;
826;SDS011;395;48.132;11.608;2023-03-01T07:45:02;42.22;;;17.80;;
826;SDS011;395;48.132;11.608;2023-03-01T07:47:28;28.33;;;16.88;;
826;SDS011;395;48.132;11.608;2023-03-01T07:49:53;31.27;;;18.20;;
826;SDS011;395;48.132;11.608;2023-03-01T07:52:19;27.40;;;17.80;;
826;SDS011;395;48.132;11.608;2023-03-01T07:54:45;25.60;;;17.07;;
826;SDS011;395;48.132;11.608;2023-03-01T07:57:10;25.93;;;16.50;;
826;SDS011;395;48.132;11.608;2023-03-01T07:59:36;25.17;;;16.67;;
826;SDS011;395;48.132;11.608;2023-03-01T08:02:02;27.53;;;16.73;;
826;SDS011;395;48.132;11.608;2023-03-01T08:04:27;23.00;;;16.53;;
826;SDS011;395;48.132;11.608;2023-03-01T08:06:56;23.60;;;16.23;;
826;SDS011;395;48.132;11.608;2023-03-01T08:09:22;25.10;;;17.63;;
826;SDS011;395;48.132;11.608;2023-03-01T08:11:47;25.93;;;16.53;;
826;SDS011;395;48.132;11.608;2023-03-01T08:14:13;21.93;;;14.90;;
826;SDS011;395;48.132;11.608;2023-03-01T08:16:38;26.30;;;17.37;;
826;SDS011;395;48.132;11.608;2023-03-01T08:19:13;26.23;;;16.57;;
826;SDS011;395;48.132;11.608;2023-03-01T08:21:39;32.22;;;18.40;;
826;SDS011;395;48.132;11.608;2023-03-01T08:24:05;28.37;;;18.80;;
826;SDS011;395;48.132;11.608;2023-03-01T08:26:31;24.50;;;16.33;;
826;SDS011;395;48.132;11.608;2023-03-01T08:28:57;23.27;;;15.77;;
826;SDS011;395;48.132;11.608;2023-03-01T08:31:26;21.90;;;16.73;;
826;SDS011;395;48.132;11.608;2023-03-01T08:33:55;23.67;;;16.73;;
826;SDS011;395;48.132;11.608;2023-03-01T08:36:23;25.85;;;16.40;;
826;SDS011;395;48.132;11.608;2023-03-01T08:38:53;19.98;;;15.40;;
826;SDS011;395;48.132;11.608;2023-03-01T08:41:19;23.87;;;16.17;;
826;SDS011;395;48.132;11.608;2023-03-01T08:43:45;25.05;;;17.10;;
826;SDS011;395;48.132;11.608;2023-03-01T08:46:11;24.47;;;17.60;;
826;SDS011;395;48.132;11.608;2023-03-01T08:48:38;25.10;;;16.60;;
826;SDS011;395;48.132;11.608;2023-03-01T08:51:11;28.15;;;17.20;;
826;SDS011;395;48.132;11.608;2023-03-01T08:53:39;28.23;;;17.23;;
826;SDS011;395;48.132;11.608;2023-03-01T08:56:05;23.85;;;16.67;;
826;SDS011;395;48.132;11.608;2023-03-01T08:58:31;23.77;;;15.83;;
826;SDS011;395;48.132;11.608;2023-03-01T09:00:56;27.73;;;18.23;;
826;SDS011;395;48.132;11.608;2023-03-01T09:03:23;23.50;;;16.97;;
826;SDS011;395;48.132;11.608;2023-03-01T09:05:49;24.90;;;16.08;;
826;SDS011;395;48.132;11.608;2023-03-01T09:08:19;24.40;;;17.65;;
826;SDS011;395;48.132;11.608;2023-03-01T09:10:45;31.20;;;18.08;;
826;SDS011;395;48.132;11.608;2023-03-01T09:13:11;28.58;;;17.55;;
826;SDS011;395;48.132;11.608;2023-03-01T09:15:37;28.70;;;17.30;;
826;SDS011;395;48.132;11.608;2023-03-01T09:18:03;27.83;;;17.60;;
826;SDS011;395;48.132;11.608;2023-03-01T09:20:29;26.17;;;15.80;;
826;SDS011;395;48.132;11.608;2023-03-01T09:22:56;25.95;;;17.15;;
826;SDS011;395;48.132;11.608;2023-03-01T09:25:22;26.07;;;16.10;;
826;SDS011;395;48.132;11.608;2023-03-01T09:27:50;31.25;;;16.85;;
826;SDS011;395;48.132;11.608;2023-03-01T09:30:19;25.55;;;17.95;;
826;SDS011;395;48.132;11.608;2023-03-01T09:32:46;24.52;;;16.38;;
826;SDS011;395;48.132;11.608;2023-03-01T09:35:12;29.25;;;16.50;;
826;SDS011;395;48.132;11.608;2023-03-01T09:37:38;24.45;;;17.05;;
826;SDS011;395;48.132;11.608;2023-03-01T09:40:17;23.65;;;16.83;;
826;SDS011;395;48.132;11.608;2023-03-01T09:42:46;25.65;;;17.25;;
826;SDS011;395;48.132;11.608;2023-03-01T09:45:33;29.65;;;18.65;;
826;SDS011;395;48.132;11.608;2023-03-01T09:48:00;23.10;;;16.70;;
826;SDS011;395;48.132;11.608;2023-03-01T09:50:32;23.88;;;16.77;;
826;SDS011;395;48.132;11.608;2023-03-01T09:53:13;26.10;;;17.40;;
826;SDS011;395;48.132;11.608;2023-03-01T09:55:45;30.23;;;17.48;;
826;SDS011;395;48.132;11.608;2023-03-01T09:58:29;24.33;;;17.30;;
826;SDS011;395;48.132;11.608;2023-03-01T10:01:38;24.02;;;16.58;;
826;SDS011;395;48.132;11.608;2023-03-01T10:06:31;27.80;;;17.90;;
826;SDS011;395;48.132;11.608;2023-03-01T10:09:05;24.53;;;16.23;;
826;SDS011;395;48.132;11.608;2023-03-01T10:11:40;26.60;;;17.80;;
826;SDS011;395;48.132;11.608;2023-03-01T10:16:55;23.00;;;15.45;;
826;SDS011;395;48.132;11.608;2023-03-01T10:22:08;25.42;;;16.98;;
826;SDS011;395;48.132;11.608;2023-03-01T10:24:38;24.95;;;17.13;;
826;SDS011;395;48.132;11.608;2023-03-01T10:27:05;23.93;;;16.83;;
826;SDS011;395;48.132;11.608;2023-03-01T10:32:41;27.30;;;17.30;;
826;SDS011;395;48.132;11.608;2023-03-01T10:35:21;29.13;;;17.77;;
826;SDS011;395;48.132;11.608;2023-03-01T10:40:32;26.27;;;18.05;;
826;SDS011;395;48.132;11.608;2023-03-01T10:43:00;31.35;;;19.58;;
826;SDS011;395;48.132;11.608;2023-03-01T10:45:37;25.50;;;16.98;;
826;SDS011;395;48.132;11.608;2023-03-01T10:50:38;28.50;;;18.20;;
826;SDS011;395;48.132;11.608;2023-03-01T10:53:22;25.80;;;17.30;;
826;SDS011;395;48.132;11.608;2023-03-01T10:56:01;26.88;;;18.20;;
826;SDS011;395;48.132;11.608;2023-03-01T10:58:32;24.67;;;17.45;;
826;SDS011;395;48.132;11.608;2023-03-01T11:01:42;22.80;;;17.20;;
826;SDS011;395;48.132;11.608;2023-03-01T11:06:36;28.65;;;18.73;;
826;SDS011;395;48.132;11.608;2023-03-01T11:09:14;22.33;;;16.95;;
826;SDS011;395;48.132;11.608;2023-03-01T11:11:40;23.65;;;17.90;;
826;SDS011;395;48.132;11.608;2023-03-01T11:14:16;27.55;;;19.88;;
826;SDS011;395;48.132;11.608;2023-03-01T11:16:45;31.15;;;19.65;;
826;SDS011;395;48.132;11.608;2023-03-01T11:19:21;27.25;;;18.58;;
826;SDS011;395;48.132;11.608;2023-03-01T11:24:51;24.20;;;18.08;;
826;SDS011;395;48.132;11.608;2023-03-01T11:27:23;30.23;;;19.45;;
826;SDS011;395;48.132;11.608;2023-03-01T11:32:45;25.35;;;17.90;;
826;SDS011;395;48.132;11.608;2023-03-01T11:35:23;27.20;;;19.00;;
826;SDS011;395;48.132;11.608;2023-03-01T11:42:56;25.97;;;17.70;;
826;SDS011;395;48.132;11.608;2023-03-01T11:45:25;25.13;;;18.52;;
826;SDS011;395;48.132;11.608;2023-03-01T11:48:14;27.98;;;19.23;;
826;SDS011;395;48.132;11.608;2023-03-01T11:50:56;23.95;;;18.23;;
826;SDS011;395;48.132;11.608;2023-03-01T11:53:48;27.27;;;18.08;;
826;SDS011;395;48.132;11.608;2023-03-01T12:04:30;25.45;;;17.58;;
826;SDS011;395;48.132;11.608;2023-03-01T12:10:22;26.25;;;17.33;;
826;SDS011;395;48.132;11.608;2023-03-01T12:12:58;22.77;;;16.75;;
826;SDS011;395;48.132;11.608;2023-03-01T12:15:44;26.15;;;18.38;;
826;SDS011;395;48.132;11.608;2023-03-01T12:30:06;25.05;;;17.80;;
826;SDS011;395;48.132;11.608;2023-03-01T12:45:43;30.08;;;18.00;;
826;SDS011;395;48.132;11.608;2023-03-01T12:51:14;24.23;;;18.90;;
826;SDS011;395;48.132;11.608;2023-03-01T12:53:47;26.42;;;18.02;;
826;SDS011;395;48.132;11.608;2023-03-01T12:56:18;26.25;;;17.00;;
826;SDS011;395;48.132;11.608;2023-03-01T13:10:26;25.58;;;18.30;;
826;SDS011;395;48.132;11.608;2023-03-01T13:13:24;27.13;;;17.75;;
826;SDS011;395;48.132;11.608;2023-03-01T13:15:51;24.27;;;17.25;;
826;SDS011;395;48.132;11.608;2023-03-01T13:30:59;33.35;;;19.70;;
826;SDS011;395;48.132;11.608;2023-03-01T13:35:51;25.70;;;19.73;;
826;SDS011;395;48.132;11.608;2023-03-01T13:41:17;25.80;;;18.13;;
826;SDS011;395;48.132;11.608;2023-03-01T13:46:51;23.60;;;17.33;;
826;SDS011;395;48.132;11.608;2023-03-01T13:49:33;32.30;;;18.45;;
826;SDS011;395;48.132;11.608;2023-03-01T13:57:56;24.98;;;17.35;;
826;SDS011;395;48.132;11.608;2023-03-01T14:00:28;26.83;;;18.20;;
826;SDS011;395;48.132;11.608;2023-03-01T14:03:22;27.63;;;18.20;;
826;SDS011;395;48.132;11.608;2023-03-01T14:08:43;29.33;;;18.67;;
826;SDS011;395;48.132;11.608;2023-03-01T14:11:20;26.83;;;18.45;;
826;SDS011;395;48.132;11.608;2023-03-01T14:14:27;24.58;;;17.55;;
826;SDS011;395;48.132;11.608;2023-03-01T14:20:01;29.48;;;19.63;;
826;SDS011;395;48.132;11.608;2023-03-01T14:22:48;31.08;;;18.35;;
826;SDS011;395;48.132;11.608;2023-03-01T14:27:50;22.92;;;16.60;;
826;SDS011;395;48.132;11.608;2023-03-01T14:30:22;26.38;;;17.50;;
826;SDS011;395;48.132;11.608;2023-03-01T14:32:55;28.45;;;18.80;;
826;SDS011;395;48.132;11.608;2023-03-01T14:35:32;22.33;;;16.97;;
826;SDS011;395;48.132;11.608;2023-03-01T14:38:00;24.40;;;17.00;;
826;SDS011;395;48.132;11.608;2023-03-01T14:42:53;24.73;;;17.83;;
826;SDS011;395;48.132;11.608;2023-03-01T14:45:22;23.08;;;17.23;;
826;SDS011;395;48.132;11.608;2023-03-01T14:47:51;25.05;;;15.75;;
826;SDS011;395;48.132;11.608;2023-03-01T14:50:27;27.15;;;18.42;;
826;SDS011;395;48.132;11.608;2023-03-01T14:52:55;25.42;;;15.82;;
826;SDS011;395;48.132;11.608;2023-03-01T14:55:29;23.42;;;17.15;;
826;SDS011;395;48.132;11.608;2023-03-01T14:57:55;21.92;;;17.00;;
826;SDS011;395;48.132;11.608;2023-03-01T15:00:23;23.92;;;16.83;;
826;SDS011;395;48.132;11.608;2023-03-01T15:02:51;23.88;;;16.85;;
826;SDS011;395;48.132;11.608;2023-03-01T15:05:23;26.88;;;16.65;;
826;SDS011;395;48.132;11.608;2023-03-01T15:07:59;30.52;;;21.83;;
826;SDS011;395;48.132;11.608;2023-03-01T15:10:31;43.80;;;34.13;;
826;SDS011;395;48.132;11.608;2023-03-01T15:13:12;25.98;;;18.65;;
826;SDS011;395;48.132;11.608;2023-03-01T15:15:42;24.00;;;16.52;;
826;SDS011;395;48.132;11.608;2023-03-01T15:18:18;20.63;;;15.53;;
826;SDS011;395;48.132;11.608;2023-03-01T15:20:47;24.70;;;16.13;;
826;SDS011;395;48.132;11.608;2023-03-01T15:23:31;21.88;;;15.73;;
826;SDS011;395;48.132;11.608;2023-03-01T15:25:57;22.60;;;16.70;;
826;SDS011;395;48.132;11.608;2023-03-01T15:28:25;28.67;;;17.10;;
826;SDS011;395;48.132;11.608;2023-03-01T15:31:22;22.95;;;15.20;;
826;SDS011;395;48.132;11.608;2023-03-01T15:33:49;21.13;;;15.90;;
826;SDS011;395;48.132;11.608;2023-03-01T15:38:57;19.35;;;14.32;;
826;SDS011;395;48.132;11.608;2023-03-01T15:44:15;20.45;;;14.85;;
826;SDS011;395;48.132;11.608;2023-03-01T15:46:44;20.48;;;15.68;;
826;SDS011;395;48.132;11.608;2023-03-01T15:52:12;32.75;;;15.32;;
826;SDS011;395;48.132;11.608;2023-03-01T15:54:44;25.58;;;15.30;;
826;SDS011;395;48.132;11.608;2023-03-01T15:57:13;21.02;;;14.48;;
826;SDS011;395;48.132;11.608;2023-03-01T15:59:40;22.23;;;15.70;;
826;SDS011;395;48.132;11.608;2023-03-01T16:02:10;19.60;;;13.95;;
826;SDS011;395;48.132;11.608;2023-03-01T16:04:38;24.55;;;16.20;;
826;SDS011;395;48.132;11.608;2023-03-01T16:07:04;25.77;;;15.98;;
826;SDS011;395;48.132;11.608;2023-03-01T16:09:30;23.63;;;14.63;;
826;SDS011;395;48.132;11.608;2023-03-01T16:11:57;18.77;;;13.63;;
826;SDS011;395;48.132;11.608;2023-03-01T16:14:23;24.05;;;14.98;;
826;SDS011;395;48.132;11.608;2023-03-01T16:16:48;23.07;;;14.63;;
826;SDS011;395;48.132;11.608;2023-03-01T16:19:14;24.87;;;13.87;;
826;SDS011;395;48.132;11.608;2023-03-01T16:21:41;20.00;;;14.02;;
826;SDS011;395;48.132;11.608;2023-03-01T16:24:08;17.88;;;13.18;;
826;SDS011;395;48.132;11.608;2023-03-01T16:26:35;21.48;;;14.10;;
826;SDS011;395;48.132;11.608;2023-03-01T16:29:02;21.23;;;13.93;;
826;SDS011;395;48.132;11.608;2023-03-01T16:31:29;17.67;;;12.63;;
826;SDS011;395;48.132;11.608;2023-03-01T16:33:56;18.00;;;13.82;;
826;SDS011;395;48.132;11.608;2023-03-01T16:36:23;20.50;;;14.40;;
826;SDS011;395;48.132;11.608;2023-03-01T16:38:51;16.30;;;11.65;;
826;SDS011;395;48.132;11.608;2023-03-01T16:41:18;20.70;;;13.68;;
826;SDS011;395;48.132;11.608;2023-03-01T16:43:46;18.87;;;12.97;;
826;SDS011;395;48.132;11.608;2023-03-01T16:46:13;16.30;;;12.00;;
826;SDS011;395;48.132;11.608;2023-03-01T16:48:45;18.25;;;13.45;;
826;SDS011;395;48.132;11.608;2023-03-01T16:51:11;15.45;;;10.73;;
826;SDS011;395;48.132;11.608;2023-03-01T16:53:37;18.43;;;13.03;;
826;SDS011;395;48.132;11.608;2023-03-01T16:56:04;18.90;;;13.70;;
826;SDS011;395;48.132;11.608;2023-03-01T16:58:33;19.90;;;13.10;;
826;SDS011;395;48.132;11.608;2023-03-01T17:01:32;13.75;;;9.18;;
826;SDS011;395;48.132;11.608;2023-03-01T17:03:51;18.95;;;11.00;;
826;SDS011;395;48.132;11.608;2023-03-01T17:06:18;16.23;;;9.87;;
826;SDS011;395;48.132;11.608;2023-03-01T17:08:45;15.43;;;10.98;;
826;SDS011;395;48.132;11.608;2023-03-01T17:11:13;24.73;;;13.70;;
826;SDS011;395;48.132;11.608;2023-03-01T17:13:43;12.85;;;9.75;;
826;SDS011;395;48.132;11.608;2023-03-01T17:16:11;16.90;;;12.80;;
826;SDS011;395;48.132;11.608;2023-03-01T17:18:39;26.67;;;17.13;;
826;SDS011;395;48.132;11.608;2023-03-01T17:21:05;26.50;;;19.43;;
826;SDS011;395;48.132;11.608;2023-03-01T17:23:31;26.15;;;19.50;;
826;SDS011;395;48.132;11.608;2023-03-01T17:25:58;29.98;;;20.50;;
826;SDS011;395;48.132;11.608;2023-03-01T17:28:25;31.80;;;22.23;;
826;SDS011;395;48.132;11.608;2023-03-01T17:30:52;36.65;;;22.50;;
826;SDS011;395;48.132;11.608;2023-03-01T17:33:19;28.15;;;20.27;;
826;SDS011;395;48.132;11.608;2023-03-01T17:35:46;28.13;;;21.33;;
826;SDS011;395;48.132;11.608;2023-03-01T17:38:12;33.25;;;22.50;;
826;SDS011;395;48.132;11.608;2023-03-01T17:40:39;31.13;;;21.70;;
826;SDS011;395;48.132;11.608;2023-03-01T17:43:06;37.08;;;23.45;;
826;SDS011;395;48.132;11.608;2023-03-01T17:45:33;38.28;;;24.00;;
826;SDS011;395;48.132;11.608;2023-03-01T17:48:01;32.80;;;24.00;;